createdAt,value
2023-02-17T00:01:49.191Z,100628.72
2023-02-17T00:04:36.164Z,100624.19
2023-02-17T00:07:23.960Z,100623.16
2023-02-17T00:10:10.707Z,100619.11
2023-02-17T00:12:57.405Z,100621.34
2023-02-17T00:15:43.995Z,100620.52
2023-02-17T00:18:30.956Z,100617.92
2023-02-17T00:21:20.405Z,100611.13
2023-02-17T00:24:07.007Z,100610.42
2023-02-17T00:26:53.872Z,100610.71
2023-02-17T00:29:40.474Z,100614.60
2023-02-17T00:32:27.287Z,100610.08
2023-02-17T00:35:14.084Z,100609.68
2023-02-17T00:38:00.636Z,100610.29
2023-02-17T00:40:47.464Z,100606.30
2023-02-17T00:43:34.702Z,100605.16
2023-02-17T00:46:22.203Z,100601.50
2023-02-17T00:49:14.306Z,100601.36
2023-02-17T00:52:02.192Z,100596.10
2023-02-17T00:54:48.933Z,100598.39
2023-02-17T00:57:35.776Z,100596.42
2023-02-17T01:00:22.832Z,100593.58
2023-02-17T01:03:11.179Z,100590.16
2023-02-17T01:05:57.697Z,100586.35
2023-02-17T01:08:44.572Z,100586.52
2023-02-17T01:11:33.061Z,100578.92
2023-02-17T01:14:19.455Z,100572.81
2023-02-17T01:17:06.263Z,100570.03
2023-02-17T01:19:53.150Z,100569.42
2023-02-17T01:22:40.092Z,100570.80
2023-02-17T01:25:26.538Z,100569.70
2023-02-17T01:28:21.146Z,100565.60
2023-02-17T01:31:09.554Z,100562.98
2023-02-17T01:33:58.254Z,100559.05
2023-02-17T01:36:44.560Z,100556.36
2023-02-17T01:39:31.271Z,100553.42
2023-02-17T01:42:22.300Z,100547.90
2023-02-17T01:45:17.932Z,100544.78
2023-02-17T01:48:16.808Z,100538.65
2023-02-17T01:51:21.549Z,100537.42
2023-02-17T01:54:16.695Z,100539.55
2023-02-17T01:57:03.738Z,100536.86
2023-02-17T01:59:51.206Z,100540.91
2023-02-17T02:02:40.340Z,100542.39
2023-02-17T02:05:26.814Z,100543.59
2023-02-17T02:08:15.337Z,100538.75
2023-02-17T02:11:01.606Z,100539.88
2023-02-17T02:13:50.647Z,100536.73
2023-02-17T02:16:49.693Z,100532.33
2023-02-17T02:19:48.338Z,100527.59
2023-02-17T02:22:59.115Z,100524.16
2023-02-17T02:26:04.940Z,100523.67
2023-02-17T02:29:20.589Z,100525.71
2023-02-17T02:32:38.721Z,100521.95
2023-02-17T02:35:51.952Z,100519.48
2023-02-17T02:38:47.127Z,100514.48
2023-02-17T02:41:38.132Z,100512.83
2023-02-17T02:44:25.140Z,100507.52
2023-02-17T02:47:39.779Z,100514.98
2023-02-17T02:51:00.980Z,100511.66
2023-02-17T02:54:36.046Z,100513.53
2023-02-17T02:57:30.394Z,100510.54
2023-02-17T03:00:35.877Z,100512.31
2023-02-17T03:03:44.396Z,100509.05
2023-02-17T03:06:39.876Z,100504.35
2023-02-17T03:09:27.677Z,100507.08
2023-02-17T03:12:15.155Z,100500.34
2023-02-17T03:15:08.521Z,100502.74
2023-02-17T03:17:59.874Z,100505.44
2023-02-17T03:20:54.566Z,100508.37
2023-02-17T03:23:40.891Z,100507.09
2023-02-17T03:26:27.715Z,100503.47
2023-02-17T03:29:14.575Z,100500.95
2023-02-17T03:32:01.579Z,100491.35
2023-02-17T03:34:48.046Z,100501.21
2023-02-17T03:37:34.896Z,100512.38
2023-02-17T03:40:21.559Z,100505.02
2023-02-17T03:43:09.277Z,100507.98
2023-02-17T03:45:56.104Z,100509.48
2023-02-17T03:48:43.524Z,100505.30
2023-02-17T03:51:30.162Z,100499.16
2023-02-17T03:54:16.995Z,100501.65
2023-02-17T03:57:03.815Z,100507.31
2023-02-17T03:59:50.335Z,100511.29
2023-02-17T04:02:36.966Z,100512.67
2023-02-17T04:05:24.568Z,100504.85
2023-02-17T04:08:12.056Z,100500.01
2023-02-17T04:11:01.362Z,100496.86
2023-02-17T04:13:47.898Z,100485.69
2023-02-17T04:16:34.716Z,100482.45
2023-02-17T04:19:21.430Z,100483.59
2023-02-17T04:22:09.030Z,100485.27
2023-02-17T04:24:55.872Z,100482.55
2023-02-17T04:27:42.738Z,100481.92
2023-02-17T04:30:29.521Z,100482.95
2023-02-17T04:33:17.540Z,100488.54
2023-02-17T04:36:05.508Z,100487.69
2023-02-17T04:38:52.305Z,100485.20
2023-02-17T04:41:38.843Z,100481.90
2023-02-17T04:44:25.818Z,100477.45
2023-02-17T04:47:12.773Z,100483.09
2023-02-17T04:49:59.482Z,100466.73
2023-02-17T04:52:46.001Z,100455.04
2023-02-17T04:55:33.514Z,100453.39
2023-02-17T04:58:21.267Z,100450.89
2023-02-17T05:01:07.898Z,100451.57
2023-02-17T05:03:54.479Z,100451.52
2023-02-17T05:06:41.250Z,100458.53
2023-02-17T05:09:27.790Z,100457.11
2023-02-17T05:12:14.603Z,100454.39
2023-02-17T05:15:01.609Z,100453.17
2023-02-17T05:17:48.508Z,100447.45
2023-02-17T05:20:35.060Z,100440.00
2023-02-17T05:23:21.980Z,100430.23
2023-02-17T05:26:09.846Z,100432.42
2023-02-17T05:28:57.743Z,100441.36
2023-02-17T05:31:44.814Z,100430.37
2023-02-17T05:34:32.109Z,100428.85
2023-02-17T05:37:18.730Z,100443.66
2023-02-17T05:40:06.414Z,100435.27
2023-02-17T05:42:53.058Z,100429.10
2023-02-17T05:45:39.793Z,100434.35
2023-02-17T05:48:26.330Z,100430.35
2023-02-17T05:51:17.225Z,100417.58
2023-02-17T05:54:04.117Z,100422.66
2023-02-17T05:56:50.559Z,100418.38
2023-02-17T05:59:37.244Z,100416.27
2023-02-17T06:02:23.976Z,100412.94
2023-02-17T06:05:11.257Z,100414.68
2023-02-17T06:07:58.089Z,100416.05
2023-02-17T06:10:44.760Z,100413.51
2023-02-17T06:13:31.336Z,100414.69
2023-02-17T06:16:17.965Z,100405.61
2023-02-17T06:19:06.566Z,100409.91
2023-02-17T06:21:53.053Z,100410.98
2023-02-17T06:24:39.866Z,100416.20
2023-02-17T06:27:26.576Z,100414.85
2023-02-17T06:30:15.119Z,100413.86
2023-02-17T06:33:03.005Z,100414.86
2023-02-17T06:35:51.646Z,100410.05
2023-02-17T06:38:38.324Z,100419.02
2023-02-17T06:41:25.079Z,100418.67
2023-02-17T06:44:11.845Z,100418.25
2023-02-17T06:46:59.426Z,100414.94
2023-02-17T06:49:46.107Z,100417.60
2023-02-17T06:52:32.649Z,100411.89
2023-02-17T06:55:19.832Z,100404.66
2023-02-17T06:58:07.544Z,100402.65
2023-02-17T07:00:54.159Z,100405.85
2023-02-17T07:03:40.755Z,100411.36
2023-02-17T07:06:28.904Z,100406.80
2023-02-17T07:09:15.331Z,100402.88
2023-02-17T07:12:02.774Z,100398.30
2023-02-17T07:14:49.414Z,100391.26
2023-02-17T07:17:35.995Z,100387.80
2023-02-17T07:20:22.729Z,100393.19
2023-02-17T07:23:09.437Z,100401.19
2023-02-17T07:25:56.374Z,100394.86
2023-02-17T07:28:43.195Z,100387.52
2023-02-17T07:31:30.251Z,100382.58
2023-02-17T07:34:16.754Z,100382.77
2023-02-17T07:37:03.492Z,100382.52
2023-02-17T07:39:50.265Z,100382.23
2023-02-17T07:42:36.950Z,100385.77
2023-02-17T07:45:23.600Z,100387.48
2023-02-17T07:48:10.452Z,100390.63
2023-02-17T07:50:57.440Z,100393.20
2023-02-17T07:53:43.838Z,100391.61
2023-02-17T07:56:30.552Z,100385.71
2023-02-17T07:59:16.889Z,100387.08
2023-02-17T08:02:06.570Z,100388.42
2023-02-17T08:04:53.322Z,100380.45
2023-02-17T08:07:40.183Z,100381.70
2023-02-17T08:10:46.690Z,100381.42
2023-02-17T08:13:35.939Z,100383.15
2023-02-17T08:16:22.252Z,100378.50
2023-02-17T08:19:09.507Z,100371.52
2023-02-17T08:21:56.096Z,100373.05
2023-02-17T08:24:42.618Z,100372.76
2023-02-17T08:27:29.228Z,100378.06
2023-02-17T08:30:16.133Z,100377.51
2023-02-17T08:33:02.532Z,100378.98
2023-02-17T08:35:49.511Z,100373.25
2023-02-17T08:38:36.173Z,100369.11
2023-02-17T08:41:29.034Z,100365.69
2023-02-17T08:44:18.825Z,100364.39
2023-02-17T08:47:06.812Z,100355.56
2023-02-17T08:49:53.799Z,100357.63
2023-02-17T08:52:40.208Z,100358.16
2023-02-17T08:55:35.565Z,100351.80
2023-02-17T08:58:30.595Z,100345.86
2023-02-17T09:01:19.225Z,100347.02
2023-02-17T09:04:08.450Z,100349.16
2023-02-17T09:06:56.786Z,100348.84
2023-02-17T09:09:43.926Z,100344.40
2023-02-17T09:12:30.914Z,100344.83
2023-02-17T09:15:17.298Z,100341.91
2023-02-17T09:18:04.008Z,100340.88
2023-02-17T09:20:51.394Z,100346.52
2023-02-17T09:23:38.497Z,100342.61
2023-02-17T09:26:24.924Z,100340.95
2023-02-17T09:29:11.854Z,100334.85
2023-02-17T09:31:58.369Z,100330.44
2023-02-17T09:34:51.514Z,100327.85
2023-02-17T09:37:38.166Z,100325.94
2023-02-17T09:40:33.064Z,100321.98
2023-02-17T09:43:28.908Z,100319.15
2023-02-17T09:46:24.131Z,100314.66
2023-02-17T09:49:24.691Z,100309.38
2023-02-17T09:52:21.215Z,100305.38
2023-02-17T09:55:18.340Z,100300.79
2023-02-17T09:58:20.172Z,100300.20
2023-02-17T10:01:12.422Z,100295.00
2023-02-17T10:04:07.397Z,100293.31
2023-02-17T10:07:02.403Z,100290.89
2023-02-17T10:09:58.437Z,100284.81
2023-02-17T10:12:50.607Z,100283.41
2023-02-17T10:16:10.179Z,100279.82
2023-02-17T10:19:14.537Z,100276.05
2023-02-17T10:22:14.946Z,100274.42
2023-02-17T10:25:04.935Z,100273.94
2023-02-17T10:28:17.430Z,100276.96
2023-02-17T10:31:10.825Z,100271.02
2023-02-17T10:34:20.338Z,100275.94
2023-02-17T10:37:22.072Z,100269.54
2023-02-17T10:40:15.534Z,100265.11
2023-02-17T10:43:07.745Z,100253.82
2023-02-17T10:45:57.711Z,100247.13
2023-02-17T10:48:53.248Z,100242.03
2023-02-17T10:51:39.515Z,100234.15
2023-02-17T10:54:36.086Z,100224.75
2023-02-17T10:57:26.731Z,100224.92
2023-02-17T11:00:18.694Z,100217.27
2023-02-17T11:03:05.383Z,100214.36
2023-02-17T11:06:06.469Z,100211.06
2023-02-17T11:08:58.812Z,100203.45
2023-02-17T11:12:02.629Z,100198.57
2023-02-17T11:14:54.285Z,100195.34
2023-02-17T11:17:41.413Z,100182.43
2023-02-17T11:20:33.195Z,100175.13
2023-02-17T11:23:24.671Z,100167.63
2023-02-17T11:26:18.508Z,100162.02
2023-02-17T11:29:16.795Z,100160.04
2023-02-17T11:32:11.117Z,100148.50
2023-02-17T11:34:59.089Z,100143.23
2023-02-17T11:37:45.374Z,100132.00
2023-02-17T11:40:33.269Z,100120.80
2023-02-17T11:43:20.856Z,100115.79
2023-02-17T11:46:10.340Z,100108.56
2023-02-17T11:49:06.318Z,100104.69
2023-02-17T11:52:04.700Z,100100.03
2023-02-17T11:55:39.023Z,100093.64
2023-02-17T11:58:59.037Z,100086.64
2023-02-17T12:02:02.122Z,100083.89
2023-02-17T12:05:13.457Z,100075.52
2023-02-17T12:08:23.175Z,100073.20
2023-02-17T12:11:27.512Z,100065.34
2023-02-17T12:14:45.694Z,100059.79
2023-02-17T12:18:11.815Z,100051.54
2023-02-17T12:21:07.239Z,100038.55
2023-02-17T12:24:02.664Z,100034.73
2023-02-17T12:27:12.300Z,100019.55
2023-02-17T12:30:11.017Z,100017.27
2023-02-17T12:33:31.238Z,100005.98
2023-02-17T12:36:19.807Z,99992.10
2023-02-17T12:39:35.251Z,99982.46
2023-02-17T12:42:37.310Z,99974.52
2023-02-17T12:45:36.868Z,99971.48
2023-02-17T12:48:50.067Z,99966.89
2023-02-17T12:51:51.207Z,99968.03
2023-02-17T12:54:47.025Z,99966.30
2023-02-17T12:57:55.963Z,99963.95
2023-02-17T13:00:46.490Z,99962.73
2023-02-17T13:03:34.960Z,99963.54
2023-02-17T13:06:32.833Z,99956.27
2023-02-17T13:09:31.670Z,99948.07
2023-02-17T13:12:33.300Z,99938.60
2023-02-17T13:15:34.693Z,99931.67
2023-02-17T13:18:24.133Z,99933.05
2023-02-17T13:21:27.517Z,99930.63
2023-02-17T13:24:30.641Z,99923.10
2023-02-17T13:27:34.090Z,99915.62
2023-02-17T13:30:26.763Z,99907.90
2023-02-17T13:33:22.888Z,99905.53
2023-02-17T13:36:16.638Z,99901.49
2023-02-17T13:39:26.899Z,99898.85
2023-02-17T13:42:32.426Z,99901.95
2023-02-17T13:45:59.728Z,99891.13
2023-02-17T13:48:46.296Z,99884.61
2023-02-17T13:51:34.033Z,99880.87
2023-02-17T13:54:23.190Z,99882.77
2023-02-17T13:57:23.008Z,99880.04
2023-02-17T14:00:31.565Z,99878.13
2023-02-17T14:03:25.686Z,99872.33
2023-02-17T14:06:19.669Z,99865.40
2023-02-17T14:09:20.701Z,99859.23
2023-02-17T14:12:17.503Z,99862.17
2023-02-17T14:15:04.424Z,99858.63
2023-02-17T14:17:50.818Z,99851.47
2023-02-17T14:20:37.635Z,99841.58
2023-02-17T14:23:24.267Z,99835.86
2023-02-17T14:26:27.894Z,99826.93
2023-02-17T14:29:15.882Z,99817.41
2023-02-17T14:32:02.388Z,99810.61
2023-02-17T14:34:48.946Z,99797.41
2023-02-17T14:37:37.036Z,99794.15
2023-02-17T14:40:25.217Z,99781.33
2023-02-17T14:43:11.673Z,99772.70
2023-02-17T14:45:58.291Z,99767.58
2023-02-17T14:48:44.578Z,99763.78
2023-02-17T14:51:36.949Z,99752.32
2023-02-17T14:54:26.326Z,99744.48
2023-02-17T14:57:15.360Z,99736.60
2023-02-17T15:00:01.870Z,99731.89
2023-02-17T15:02:48.493Z,99726.36
2023-02-17T15:05:35.141Z,99720.67
2023-02-17T15:08:29.976Z,99717.40
2023-02-17T15:11:20.826Z,99711.48
2023-02-17T15:14:07.432Z,99707.21
2023-02-17T15:16:53.646Z,99697.91
2023-02-17T15:19:40.923Z,99697.77
2023-02-17T15:22:27.368Z,99691.02
2023-02-17T15:25:17.063Z,99685.20
2023-02-17T15:28:04.124Z,99684.65
2023-02-17T15:30:54.379Z,99679.40
2023-02-17T15:33:41.280Z,99673.06
2023-02-17T15:36:28.567Z,99668.55
2023-02-17T15:39:18.395Z,99661.19
2023-02-17T15:42:11.611Z,99650.67
2023-02-17T15:44:58.955Z,99651.77
2023-02-17T15:47:50.846Z,99640.10
2023-02-17T15:50:37.356Z,99629.27
2023-02-17T15:53:23.909Z,99627.10
2023-02-17T15:56:20.356Z,99619.41
2023-02-17T15:59:11.847Z,99614.83
2023-02-17T16:02:01.288Z,99606.45
2023-02-17T16:04:48.431Z,99603.72
2023-02-17T16:07:36.353Z,99597.86
2023-02-17T16:10:29.976Z,99595.80
2023-02-17T16:13:19.570Z,99590.81
2023-02-17T16:16:14.908Z,99588.13
2023-02-17T16:19:02.506Z,99581.27
2023-02-17T16:21:48.957Z,99577.17
2023-02-17T16:24:35.317Z,99571.47
2023-02-17T16:27:21.964Z,99568.45
2023-02-17T16:30:30.747Z,99557.48
2023-02-17T16:33:18.035Z,99551.20
2023-02-17T16:36:10.689Z,99550.22
2023-02-17T16:38:56.918Z,99537.81
2023-02-17T16:41:44.408Z,99536.33
2023-02-17T16:44:31.018Z,99532.84
2023-02-17T16:47:20.923Z,99534.70
2023-02-17T16:50:09.320Z,99534.15
2023-02-17T16:52:59.471Z,99525.63
2023-02-17T16:55:46.381Z,99522.38
2023-02-17T16:58:32.723Z,99517.89
2023-02-17T17:01:19.008Z,99509.45
2023-02-17T17:04:06.055Z,99499.72
2023-02-17T17:06:52.629Z,99489.63
2023-02-17T17:09:39.083Z,99485.42
2023-02-17T17:12:25.686Z,99487.55
2023-02-17T17:15:13.019Z,99474.82
2023-02-17T17:18:07.437Z,99470.73
2023-02-17T17:20:53.567Z,99457.45
2023-02-17T17:23:40.399Z,99450.23
2023-02-17T17:26:41.736Z,99449.27
2023-02-17T17:29:28.358Z,99448.34
2023-02-17T17:32:14.955Z,99442.73
2023-02-17T17:35:01.467Z,99440.48
2023-02-17T17:37:48.124Z,99422.63
2023-02-17T17:40:48.439Z,99418.38
2023-02-17T17:43:35.005Z,99402.40
2023-02-17T17:46:24.764Z,99397.79
2023-02-17T17:49:14.204Z,99392.47
2023-02-17T17:52:00.493Z,99390.55
2023-02-17T17:54:46.897Z,99376.33
2023-02-17T17:57:33.598Z,99371.40
2023-02-17T18:00:20.217Z,99375.85
2023-02-17T18:03:06.668Z,99378.42
2023-02-17T18:05:52.956Z,99366.04
2023-02-17T18:08:40.066Z,99353.89
2023-02-17T18:11:27.329Z,99354.50
2023-02-17T18:14:15.697Z,99351.95
2023-02-17T18:17:02.465Z,99353.16
2023-02-17T18:19:49.687Z,99347.20
2023-02-17T18:22:35.974Z,99338.60
2023-02-17T18:25:23.056Z,99335.98
2023-02-17T18:28:09.298Z,99337.60
2023-02-17T18:30:57.086Z,99331.48
2023-02-17T18:33:43.947Z,99324.70
2023-02-17T18:36:31.120Z,99308.14
2023-02-17T18:39:17.471Z,99307.12
2023-02-17T18:42:05.064Z,99302.77
2023-02-17T18:44:52.235Z,99303.15
2023-02-17T18:47:38.801Z,99303.73
2023-02-17T18:50:26.414Z,99297.41
2023-02-17T18:53:12.841Z,99296.63
2023-02-17T18:56:01.752Z,99281.82
2023-02-17T18:58:49.706Z,99289.42
2023-02-17T19:01:39.461Z,99294.17
2023-02-17T19:04:26.160Z,99292.78
2023-02-17T19:07:12.795Z,99282.52
2023-02-17T19:09:59.396Z,99282.95
2023-02-17T19:12:45.786Z,99282.05
2023-02-17T19:15:32.554Z,99276.55
2023-02-17T19:18:19.113Z,99267.67
2023-02-17T19:21:06.963Z,99262.42
2023-02-17T19:23:53.749Z,99268.20
2023-02-17T19:26:40.464Z,99265.38
2023-02-17T19:29:26.665Z,99256.84
2023-02-17T19:32:13.654Z,99258.86
2023-02-17T19:34:59.851Z,99258.31
2023-02-17T19:37:46.350Z,99252.84
2023-02-17T19:40:35.003Z,99247.73
2023-02-17T19:43:21.206Z,99243.85
2023-02-17T19:46:08.338Z,99244.23
2023-02-17T19:48:54.998Z,99234.59
2023-02-17T19:51:41.484Z,99235.79
2023-02-17T19:54:27.809Z,99230.41
2023-02-17T19:57:17.446Z,99237.48
2023-02-17T20:00:05.604Z,99237.45
2023-02-17T20:02:51.995Z,99235.51
2023-02-17T20:05:40.004Z,99232.31
2023-02-17T20:08:26.600Z,99230.89
2023-02-17T20:11:14.475Z,99227.23
2023-02-17T20:14:01.892Z,99228.45
2023-02-17T20:16:53.445Z,99222.17
2023-02-17T20:19:41.029Z,99223.88
2023-02-17T20:22:27.334Z,99224.88
2023-02-17T20:25:13.697Z,99215.17
2023-02-17T20:27:59.999Z,99216.86
2023-02-17T20:30:46.268Z,99204.38
2023-02-17T20:33:32.686Z,99207.70
2023-02-17T20:36:18.991Z,99206.52
2023-02-17T20:39:05.446Z,99206.64
2023-02-17T20:41:54.860Z,99199.34
2023-02-17T20:44:42.125Z,99191.42
2023-02-17T20:47:29.742Z,99201.48
2023-02-17T20:50:18.910Z,99197.27
2023-02-17T20:53:05.167Z,99193.38
2023-02-17T20:55:52.117Z,99195.73
2023-02-17T20:58:40.228Z,99195.59
2023-02-17T21:01:27.227Z,99194.58
2023-02-17T21:04:15.254Z,99183.50
2023-02-17T21:07:01.748Z,99181.77
2023-02-17T21:09:48.311Z,99184.93
2023-02-17T21:12:34.920Z,99182.30
2023-02-17T21:15:21.825Z,99172.44
2023-02-17T21:18:09.240Z,99169.71
2023-02-17T21:20:55.555Z,99166.53
2023-02-17T21:23:42.283Z,99167.23
2023-02-17T21:26:28.475Z,99163.40
2023-02-17T21:29:15.005Z,99157.79
2023-02-17T21:32:01.295Z,99152.23
2023-02-17T21:34:47.675Z,99150.56
2023-02-17T21:37:34.464Z,99148.52
2023-02-17T21:40:21.219Z,99144.08
2023-02-17T21:43:39.600Z,99150.64
2023-02-17T21:46:26.973Z,99145.46
2023-02-17T21:49:13.944Z,99140.90
2023-02-17T21:52:00.432Z,99150.83
2023-02-17T21:54:46.495Z,99148.39
2023-02-17T21:57:33.285Z,99148.58
2023-02-17T22:00:19.986Z,99146.30
2023-02-17T22:03:06.478Z,99155.14
2023-02-17T22:05:53.019Z,99151.63
2023-02-17T22:08:39.645Z,99155.20
2023-02-17T22:11:30.026Z,99146.95
2023-02-17T22:14:18.751Z,99152.52
2023-02-17T22:17:05.049Z,99183.80
2023-02-17T22:19:51.448Z,99169.64
2023-02-17T22:22:37.827Z,99167.15
2023-02-17T22:25:24.590Z,99166.34
2023-02-17T22:28:13.426Z,99164.72
2023-02-17T22:31:00.558Z,99160.40
2023-02-17T22:33:47.359Z,99164.90
2023-02-17T22:36:35.385Z,99158.83
2023-02-17T22:39:21.667Z,99155.25
2023-02-17T22:42:08.060Z,99155.10
2023-02-17T22:44:54.647Z,99144.31
2023-02-17T22:47:41.118Z,99149.23
2023-02-17T22:50:27.332Z,99155.94
2023-02-17T22:53:13.678Z,99157.20
2023-02-17T22:55:59.734Z,99168.20
2023-02-17T22:58:46.073Z,99173.58
2023-02-17T23:01:35.466Z,99173.91
2023-02-17T23:04:21.687Z,99172.17
2023-02-17T23:07:08.665Z,99173.08
2023-02-17T23:09:55.237Z,99182.41
2023-02-17T23:12:41.462Z,99182.50
2023-02-17T23:15:39.787Z,99174.73
2023-02-17T23:18:27.486Z,99189.61
2023-02-17T23:21:13.833Z,99185.70
2023-02-17T23:24:00.258Z,99179.65
2023-02-17T23:26:47.611Z,99185.07
2023-02-17T23:29:34.852Z,99196.51
2023-02-17T23:32:21.100Z,99196.03
2023-02-17T23:35:07.728Z,99198.00
2023-02-17T23:37:54.050Z,99192.31
2023-02-17T23:40:42.041Z,99195.23
2023-02-17T23:43:28.679Z,99197.17
2023-02-17T23:46:15.000Z,99197.50
2023-02-17T23:49:01.598Z,99194.47
2023-02-17T23:51:47.855Z,99200.14
2023-02-17T23:54:34.072Z,99201.96
2023-02-17T23:57:20.395Z,99205.89
